Hlavní strana
METAR-TAF:

METAR-TAF

Letiště :

Kuusamo, Finsko

zeměpisná šířka: 65-58N, zeměpisná délka: 029-11E, výška: 262 m

Aktuální stav počasí

Zpráva byla vytvořena před 37 minutami, v 11:50 UTC
Severovýchodní vítr 8 kt s nárazy do 19 kt, proměnlivý mezi severním a východním
Teplota -8°C
Vlhkost vzduchu 67%
Tlak 1001 hPa
Viditelnost 10 km a více
Skoro jasno ve výšce 1300 ft

METAR: EFKS 071150Z 05008G19KT 010V100 9999 FEW013 M08/M13 Q1001

Čas: 14:27 (12:27 UTC)

Předpověď počasí

Zpráva byla vytvořena před 58 minutami, v 11:29 UTC
Předpověď platná od 07 v 12 UTC do 07 v 21 UTC
Severovýchodní vítr 12 kt
Viditelnost 10 km a více
Polojasno ve výšce 1500 ft

TAF: EFKS 071129Z 0712/0721 05012KT 9999 SCT015

Stav a předpovědi počasí z více než 4 000 letišť (zprávy METAR a TAF).

Červené a žluté tečky na mapě představují dostupné meteorologické stanice.

Když kurzor umístíte na tečku, zobrazí se název stanice.

Pak kliknutím zobrazíte stav a předpověď počasí.

Chcete-li změnit mapu, kliknutím na zelené tlačítko se znaménkem +mapu přiblížíte, kliknutím na zelené tlačítko se znaménkem – mapu oddálíte a kliknutím na zelené šipky přejdete na sousední mapy.


METAR-TAF: